Willmathsville, Missouri
Current Conditions -  °F | °C
As of 10:55 AM on Friday 24 Oct 2014 (Local Time) from KIRK Reporting Station
Moderate Fog Moderate Fog  
Wind Chill: 58°   Ceiling: 200
Heat Index: 58°   Visibility: 0.25mi
Dew Point: 58°   Wind: 9mph
Humidity: 100%   Direction: 190°S
Pressure: 30.08"   Gusts: NA
Location:  40.3435°N, 92.5364°W
Report Text: KIRK 241555Z AUTO 19008KT 1/4SM FG VV002 14/14 A3008 RMK AO2 SLP187 T01440144
Loading
Personal Weather Stations






























Interactive Weather Map
Tropical Storm Tracking
New forecast layout! Learn more

10-Day Weather Forecast

Advertisements
Track Severe Weather on mobile